sensor_id;sensor_type;location;lat;lon;timestamp;pressure;altitude;pressure_sealevel;temperature
66113;BMP280;52893;52.870;5.822;2023-05-19T00:02:18;102855.91;;;9.93
66113;BMP280;52893;52.870;5.822;2023-05-19T00:04:46;102867.38;;;9.95
66113;BMP280;52893;52.870;5.822;2023-05-19T00:07:16;102852.63;;;9.86
66113;BMP280;52893;52.870;5.822;2023-05-19T00:09:44;102858.34;;;9.90
66113;BMP280;52893;52.870;5.822;2023-05-19T00:12:12;102853.72;;;9.85
66113;BMP280;52893;52.870;5.822;2023-05-19T00:14:40;102861.34;;;9.83
66113;BMP280;52893;52.870;5.822;2023-05-19T00:17:08;102856.44;;;9.80
66113;BMP280;52893;52.870;5.822;2023-05-19T00:19:37;102847.13;;;9.76
66113;BMP280;52893;52.870;5.822;2023-05-19T00:22:05;102835.38;;;9.65
66113;BMP280;52893;52.870;5.822;2023-05-19T00:24:32;102853.69;;;9.75
66113;BMP280;52893;52.870;5.822;2023-05-19T00:26:59;102853.69;;;9.75
66113;BMP280;52893;52.870;5.822;2023-05-19T00:29:27;102847.97;;;9.76
66113;BMP280;52893;52.870;5.822;2023-05-19T00:31:55;102850.44;;;9.78
66113;BMP280;52893;52.870;5.822;2023-05-19T00:34:22;102844.41;;;9.76
66113;BMP280;52893;52.870;5.822;2023-05-19T00:36:51;102838.41;;;9.74
66113;BMP280;52893;52.870;5.822;2023-05-19T00:39:18;102853.41;;;9.71
66113;BMP280;52893;52.870;5.822;2023-05-19T00:41:45;102840.00;;;9.65
66113;BMP280;52893;52.870;5.822;2023-05-19T00:44:12;102829.09;;;9.55
66113;BMP280;52893;52.870;5.822;2023-05-19T00:46:40;102830.72;;;9.56
66113;BMP280;52893;52.870;5.822;2023-05-19T00:49:07;102840.53;;;9.52
66113;BMP280;52893;52.870;5.822;2023-05-19T00:51:34;102844.06;;;9.52
66113;BMP280;52893;52.870;5.822;2023-05-19T00:54:04;102837.81;;;9.52
66113;BMP280;52893;52.870;5.822;2023-05-19T00:56:32;102847.59;;;9.53
66113;BMP280;52893;52.870;5.822;2023-05-19T00:58:59;102836.44;;;9.54
66113;BMP280;52893;52.870;5.822;2023-05-19T01:01:27;102840.25;;;9.53
66113;BMP280;52893;52.870;5.822;2023-05-19T01:03:54;102833.16;;;9.52
66113;BMP280;52893;52.870;5.822;2023-05-19T01:06:24;102834.53;;;9.50
66113;BMP280;52893;52.870;5.822;2023-05-19T01:08:53;102831.78;;;9.50
66113;BMP280;52893;52.870;5.822;2023-05-19T01:11:22;102828.50;;;9.48
66113;BMP280;52893;52.870;5.822;2023-05-19T01:13:49;102827.44;;;9.49
66113;BMP280;52893;52.870;5.822;2023-05-19T01:16:23;102833.94;;;9.48
66113;BMP280;52893;52.870;5.822;2023-05-19T01:18:57;102831.22;;;9.48
66113;BMP280;52893;52.870;5.822;2023-05-19T01:24:54;102829.56;;;9.37
66113;BMP280;52893;52.870;5.822;2023-05-19T01:27:37;102829.53;;;9.31
66113;BMP280;52893;52.870;5.822;2023-05-19T01:30:29;102819.97;;;9.29
66113;BMP280;52893;52.870;5.822;2023-05-19T01:33:01;102814.53;;;9.29
66113;BMP280;52893;52.870;5.822;2023-05-19T01:35:29;102807.16;;;9.24
66113;BMP280;52893;52.870;5.822;2023-05-19T01:37:59;102809.34;;;9.27
66113;BMP280;52893;52.870;5.822;2023-05-19T01:40:27;102807.44;;;9.28
66113;BMP280;52893;52.870;5.822;2023-05-19T01:42:56;102803.91;;;9.27
66113;BMP280;52893;52.870;5.822;2023-05-19T01:45:25;102799.53;;;9.26
66113;BMP280;52893;52.870;5.822;2023-05-19T01:47:57;102804.16;;;9.26
66113;BMP280;52893;52.870;5.822;2023-05-19T01:50:25;102800.09;;;9.23
66113;BMP280;52893;52.870;5.822;2023-05-19T01:52:52;102791.28;;;9.11
66113;BMP280;52893;52.870;5.822;2023-05-19T01:55:20;102807.94;;;9.20
66113;BMP280;52893;52.870;5.822;2023-05-19T01:57:56;102802.22;;;9.16
66113;BMP280;52893;52.870;5.822;2023-05-19T02:00:31;102790.19;;;9.07
66113;BMP280;52893;52.870;5.822;2023-05-19T02:03:11;102795.94;;;9.16
66113;BMP280;52893;52.870;5.822;2023-05-19T02:05:47;102805.19;;;9.15
66113;BMP280;52893;52.870;5.822;2023-05-19T02:08:23;102791.84;;;9.08
66113;BMP280;52893;52.870;5.822;2023-05-19T02:10:57;102800.84;;;9.14
66113;BMP280;52893;52.870;5.822;2023-05-19T02:13:30;102795.41;;;9.14
66113;BMP280;52893;52.870;5.822;2023-05-19T02:16:03;102795.41;;;9.14
66113;BMP280;52893;52.870;5.822;2023-05-19T02:18:32;102794.28;;;9.15
66113;BMP280;52893;52.870;5.822;2023-05-19T02:21:00;102789.13;;;9.13
66113;BMP280;52893;52.870;5.822;2023-05-19T02:23:27;102795.09;;;9.10
66113;BMP280;52893;52.870;5.822;2023-05-19T02:25:56;102786.38;;;9.08
66113;BMP280;52893;52.870;5.822;2023-05-19T02:28:24;102785.56;;;9.08
66113;BMP280;52893;52.870;5.822;2023-05-19T02:30:53;102785.28;;;9.04
66113;BMP280;52893;52.870;5.822;2023-05-19T02:33:21;102781.97;;;9.02
66113;BMP280;52893;52.870;5.822;2023-05-19T02:35:52;102784.72;;;9.02
66113;BMP280;52893;52.870;5.822;2023-05-19T02:38:19;102783.09;;;9.06
66113;BMP280;52893;52.870;5.822;2023-05-19T02:40:46;102776.00;;;9.05
66113;BMP280;52893;52.870;5.822;2023-05-19T02:43:13;102774.38;;;9.04
66113;BMP280;52893;52.870;5.822;2023-05-19T02:45:41;102776.81;;;9.06
66113;BMP280;52893;52.870;5.822;2023-05-19T02:48:09;102772.72;;;9.03
66113;BMP280;52893;52.870;5.822;2023-05-19T02:50:37;102764.56;;;9.03
66113;BMP280;52893;52.870;5.822;2023-05-19T02:53:06;102767.53;;;9.02
66113;BMP280;52893;52.870;5.822;2023-05-19T02:55:33;102770.53;;;9.00
66113;BMP280;52893;52.870;5.822;2023-05-19T02:58:01;102770.81;;;8.99
66113;BMP280;52893;52.870;5.822;2023-05-19T03:00:29;102766.69;;;8.96
66113;BMP280;52893;52.870;5.822;2023-05-19T03:02:56;102754.66;;;8.87
66113;BMP280;52893;52.870;5.822;2023-05-19T03:05:27;102767.22;;;8.93
66113;BMP280;52893;52.870;5.822;2023-05-19T03:07:56;102764.75;;;8.91
66113;BMP280;52893;52.870;5.822;2023-05-19T03:10:24;102765.59;;;8.92
66113;BMP280;52893;52.870;5.822;2023-05-19T03:12:52;102764.75;;;8.91
66113;BMP280;52893;52.870;5.822;2023-05-19T03:15:19;102764.75;;;8.91
66113;BMP280;52893;52.870;5.822;2023-05-19T03:17:48;102763.94;;;8.91
66113;BMP280;52893;52.870;5.822;2023-05-19T03:20:15;102759.84;;;8.88
66113;BMP280;52893;52.870;5.822;2023-05-19T03:22:42;102760.94;;;8.87
66113;BMP280;52893;52.870;5.822;2023-05-19T03:25:10;102763.38;;;8.84
66113;BMP280;52893;52.870;5.822;2023-05-19T03:27:38;102767.72;;;8.80
66113;BMP280;52893;52.870;5.822;2023-05-19T03:30:07;102773.16;;;8.80
66113;BMP280;52893;52.870;5.822;2023-05-19T03:32:45;102769.88;;;8.78
66113;BMP280;52893;52.870;5.822;2023-05-19T03:35:12;102763.56;;;8.72
66113;BMP280;52893;52.870;5.822;2023-05-19T03:37:39;102768.75;;;8.74
66113;BMP280;52893;52.870;5.822;2023-05-19T03:40:08;102771.47;;;8.74
66113;BMP280;52893;52.870;5.822;2023-05-19T03:42:39;102763.31;;;8.74
66113;BMP280;52893;52.870;5.822;2023-05-19T03:45:07;102764.97;;;8.75
66113;BMP280;52893;52.870;5.822;2023-05-19T03:47:34;102758.69;;;8.74
66113;BMP280;52893;52.870;5.822;2023-05-19T03:50:20;102762.50;;;8.73
66113;BMP280;52893;52.870;5.822;2023-05-19T03:52:52;102762.19;;;8.70
66113;BMP280;52893;52.870;5.822;2023-05-19T03:55:28;102772.00;;;8.66
66113;BMP280;52893;52.870;5.822;2023-05-19T03:57:57;102771.41;;;8.64
66113;BMP280;52893;52.870;5.822;2023-05-19T04:00:24;102770.03;;;8.61
66113;BMP280;52893;52.870;5.822;2023-05-19T04:02:51;102765.13;;;8.58
66113;BMP280;52893;52.870;5.822;2023-05-19T04:05:19;102761.59;;;8.58
66113;BMP280;52893;52.870;5.822;2023-05-19T04:07:46;102764.03;;;8.59
66113;BMP280;52893;52.870;5.822;2023-05-19T04:10:13;102763.50;;;8.57
66113;BMP280;52893;52.870;5.822;2023-05-19T04:12:40;102718.66;;;8.33
66113;BMP280;52893;52.870;5.822;2023-05-19T04:15:10;102759.94;;;8.57
66113;BMP280;52893;52.870;5.822;2023-05-19T04:17:37;102756.41;;;8.56
66113;BMP280;52893;52.870;5.822;2023-05-19T04:20:06;102755.59;;;8.56
66113;BMP280;52893;52.870;5.822;2023-05-19T04:22:33;102756.16;;;8.58
66113;BMP280;52893;52.870;5.822;2023-05-19T04:25:00;102758.06;;;8.57
66113;BMP280;52893;52.870;5.822;2023-05-19T04:27:30;102762.13;;;8.60
66113;BMP280;52893;52.870;5.822;2023-05-19T04:30:01;102761.09;;;8.66
66113;BMP280;52893;52.870;5.822;2023-05-19T04:32:31;102763.28;;;8.69
66113;BMP280;52893;52.870;5.822;2023-05-19T04:34:59;102756.47;;;8.66
66113;BMP280;52893;52.870;5.822;2023-05-19T04:37:28;102762.78;;;8.77
66113;BMP280;52893;52.870;5.822;2023-05-19T04:39:57;102729.19;;;8.61
66113;BMP280;52893;52.870;5.822;2023-05-19T04:42:25;102759.84;;;8.88
66113;BMP280;52893;52.870;5.822;2023-05-19T04:44:56;102761.78;;;8.93
66113;BMP280;52893;52.870;5.822;2023-05-19T04:47:25;102767.78;;;9.00
66113;BMP280;52893;52.870;5.822;2023-05-19T04:49:54;102767.31;;;9.08
66113;BMP280;52893;52.870;5.822;2023-05-19T04:52:21;102765.69;;;9.12
66113;BMP280;52893;52.870;5.822;2023-05-19T04:54:50;102772.84;;;9.33
66113;BMP280;52893;52.870;5.822;2023-05-19T04:57:17;102774.56;;;9.55
66113;BMP280;52893;52.870;5.822;2023-05-19T04:59:45;102774.84;;;9.73
66113;BMP280;52893;52.870;5.822;2023-05-19T05:02:12;102774.06;;;9.88
66113;BMP280;52893;52.870;5.822;2023-05-19T05:04:40;102771.03;;;10.10
66113;BMP280;52893;52.870;5.822;2023-05-19T05:07:10;102774.03;;;10.29
66113;BMP280;52893;52.870;5.822;2023-05-19T05:09:38;102768.56;;;10.44
66113;BMP280;52893;52.870;5.822;2023-05-19T05:12:08;102769.09;;;10.61
66113;BMP280;52893;52.870;5.822;2023-05-19T05:14:38;102779.97;;;10.81
66113;BMP280;52893;52.870;5.822;2023-05-19T05:17:06;102785.88;;;10.98
66113;BMP280;52893;52.870;5.822;2023-05-19T05:19:35;102774.94;;;11.08
66113;BMP280;52893;52.870;5.822;2023-05-19T05:22:02;102786.06;;;11.27
66113;BMP280;52893;52.870;5.822;2023-05-19T05:24:34;102784.34;;;11.36
66113;BMP280;52893;52.870;5.822;2023-05-19T05:27:03;102789.50;;;11.48
66113;BMP280;52893;52.870;5.822;2023-05-19T05:29:33;102784.47;;;11.60
66113;BMP280;52893;52.870;5.822;2023-05-19T05:32:03;102783.91;;;11.63
66113;BMP280;52893;52.870;5.822;2023-05-19T05:34:31;102783.91;;;11.63
66113;BMP280;52893;52.870;5.822;2023-05-19T05:36:59;102786.63;;;11.68
66113;BMP280;52893;52.870;5.822;2023-05-19T05:39:26;102782.69;;;11.79
66113;BMP280;52893;52.870;5.822;2023-05-19T05:41:55;102781.56;;;11.85
66113;BMP280;52893;52.870;5.822;2023-05-19T05:44:23;102790.16;;;12.02
66113;BMP280;52893;52.870;5.822;2023-05-19T05:46:51;102802.72;;;12.08
66113;BMP280;52893;52.870;5.822;2023-05-19T05:49:32;102748.25;;;11.73
66113;BMP280;52893;52.870;5.822;2023-05-19T05:52:10;102693.28;;;11.36
66113;BMP280;52893;52.870;5.822;2023-05-19T05:54:49;102522.84;;;10.39
66113;BMP280;52893;52.870;5.822;2023-05-19T05:57:22;102517.41;;;10.34
66113;BMP280;52893;52.870;5.822;2023-05-19T05:59:51;102515.75;;;10.38
66113;BMP280;52893;52.870;5.822;2023-05-19T06:02:45;102548.16;;;10.54
66113;BMP280;52893;52.870;5.822;2023-05-19T06:05:28;102808.66;;;12.16
66113;BMP280;52893;52.870;5.822;2023-05-19T06:08:00;102793.53;;;12.23
66113;BMP280;52893;52.870;5.822;2023-05-19T06:10:38;102482.41;;;10.46
66113;BMP280;52893;52.870;5.822;2023-05-19T06:13:13;102798.78;;;12.48
66113;BMP280;52893;52.870;5.822;2023-05-19T06:15:47;102511.88;;;10.88
66113;BMP280;52893;52.870;5.822;2023-05-19T06:18:23;102629.78;;;11.73
66113;BMP280;52893;52.870;5.822;2023-05-19T06:20:54;102750.69;;;12.61
66113;BMP280;52893;52.870;5.822;2023-05-19T06:23:23;102796.69;;;13.07
66113;BMP280;52893;52.870;5.822;2023-05-19T06:25:54;102797.59;;;13.21
66113;BMP280;52893;52.870;5.822;2023-05-19T06:28:28;102795.22;;;13.33
66113;BMP280;52893;52.870;5.822;2023-05-19T06:30:56;102765.22;;;13.23
66113;BMP280;52893;52.870;5.822;2023-05-19T06:33:45;102779.06;;;13.50
66113;BMP280;52893;52.870;5.822;2023-05-19T06:36:12;102790.16;;;13.77
66113;BMP280;52893;52.870;5.822;2023-05-19T06:38:47;102548.34;;;12.31
66113;BMP280;52893;52.870;5.822;2023-05-19T06:41:19;102768.19;;;13.77
66113;BMP280;52893;52.870;5.822;2023-05-19T06:43:54;102569.06;;;12.74
66113;BMP280;52893;52.870;5.822;2023-05-19T06:46:24;102810.63;;;14.31
66113;BMP280;52893;52.870;5.822;2023-05-19T06:48:53;102592.97;;;13.06
66113;BMP280;52893;52.870;5.822;2023-05-19T06:51:24;102578.34;;;13.11
66113;BMP280;52893;52.870;5.822;2023-05-19T06:53:55;102808.75;;;14.59
66113;BMP280;52893;52.870;5.822;2023-05-19T06:56:24;102767.78;;;14.43
66113;BMP280;52893;52.870;5.822;2023-05-19T06:58:54;102809.25;;;14.88
66113;BMP280;52893;52.870;5.822;2023-05-19T07:01:34;102712.94;;;14.38
66113;BMP280;52893;52.870;5.822;2023-05-19T07:04:04;102803.75;;;15.24
66113;BMP280;52893;52.870;5.822;2023-05-19T07:06:32;102810.88;;;15.47
66113;BMP280;52893;52.870;5.822;2023-05-19T07:09:00;102808.38;;;15.73
66113;BMP280;52893;52.870;5.822;2023-05-19T07:11:30;102785.72;;;15.84
66113;BMP280;52893;52.870;5.822;2023-05-19T07:14:00;102807.78;;;16.15
66113;BMP280;52893;52.870;5.822;2023-05-19T07:16:30;102768.16;;;16.02
66113;BMP280;52893;52.870;5.822;2023-05-19T07:18:58;102734.28;;;16.02
66113;BMP280;52893;52.870;5.822;2023-05-19T07:21:27;102809.44;;;16.73
66113;BMP280;52893;52.870;5.822;2023-05-19T07:23:55;102803.94;;;16.90
66113;BMP280;52893;52.870;5.822;2023-05-19T07:26:22;102766.59;;;16.84
66113;BMP280;52893;52.870;5.822;2023-05-19T07:28:50;102807.06;;;17.23
66113;BMP280;52893;52.870;5.822;2023-05-19T07:31:19;102811.09;;;17.34
66113;BMP280;52893;52.870;5.822;2023-05-19T07:33:46;102790.16;;;17.41
66113;BMP280;52893;52.870;5.822;2023-05-19T07:36:14;102782.69;;;17.42
66113;BMP280;52893;52.870;5.822;2023-05-19T07:38:41;102806.69;;;17.67
66113;BMP280;52893;52.870;5.822;2023-05-19T07:41:09;102808.13;;;17.73
66113;BMP280;52893;52.870;5.822;2023-05-19T07:43:36;102805.53;;;17.77
66113;BMP280;52893;52.870;5.822;2023-05-19T07:46:04;102808.44;;;17.89
66113;BMP280;52893;52.870;5.822;2023-05-19T07:48:35;102807.09;;;17.95
66113;BMP280;52893;52.870;5.822;2023-05-19T07:51:03;102780.31;;;17.78
66113;BMP280;52893;52.870;5.822;2023-05-19T07:53:36;102804.50;;;17.90
66113;BMP280;52893;52.870;5.822;2023-05-19T07:56:04;102725.16;;;17.44
66113;BMP280;52893;52.870;5.822;2023-05-19T07:58:32;102784.53;;;17.84
66113;BMP280;52893;52.870;5.822;2023-05-19T08:00:59;102789.03;;;17.97
66113;BMP280;52893;52.870;5.822;2023-05-19T08:03:30;102796.34;;;17.93
66113;BMP280;52893;52.870;5.822;2023-05-19T08:06:02;102795.03;;;17.99
66113;BMP280;52893;52.870;5.822;2023-05-19T08:08:29;102710.00;;;17.58
66113;BMP280;52893;52.870;5.822;2023-05-19T08:11:01;102786.69;;;18.17
66113;BMP280;52893;52.870;5.822;2023-05-19T08:13:29;102793.84;;;18.09
66113;BMP280;52893;52.870;5.822;2023-05-19T08:15:57;102778.84;;;18.19
66113;BMP280;52893;52.870;5.822;2023-05-19T08:18:25;102756.13;;;18.13
66113;BMP280;52893;52.870;5.822;2023-05-19T08:20:54;102779.66;;;18.48
66113;BMP280;52893;52.870;5.822;2023-05-19T08:23:26;102680.78;;;17.95
66113;BMP280;52893;52.870;5.822;2023-05-19T08:26:07;102787.25;;;18.60
66113;BMP280;52893;52.870;5.822;2023-05-19T08:28:36;102784.47;;;18.60
66113;BMP280;52893;52.870;5.822;2023-05-19T08:31:03;102780.69;;;18.64
66113;BMP280;52893;52.870;5.822;2023-05-19T08:33:31;102753.16;;;18.47
66113;BMP280;52893;52.870;5.822;2023-05-19T08:35:58;102773.50;;;18.72
66113;BMP280;52893;52.870;5.822;2023-05-19T08:38:29;102759.03;;;18.87
66113;BMP280;52893;52.870;5.822;2023-05-19T08:40:57;102749.19;;;18.98
66113;BMP280;52893;52.870;5.822;2023-05-19T08:43:24;102768.03;;;19.38
66113;BMP280;52893;52.870;5.822;2023-05-19T08:45:53;102758.69;;;19.54
66113;BMP280;52893;52.870;5.822;2023-05-19T08:48:21;102728.31;;;19.46
66113;BMP280;52893;52.870;5.822;2023-05-19T08:50:56;102753.88;;;19.88
66113;BMP280;52893;52.870;5.822;2023-05-19T08:53:33;102745.91;;;20.10
66113;BMP280;52893;52.870;5.822;2023-05-19T08:56:07;102742.53;;;20.17
66113;BMP280;52893;52.870;5.822;2023-05-19T08:58:37;102738.38;;;20.23
66113;BMP280;52893;52.870;5.822;2023-05-19T09:01:08;102740.56;;;20.29
66113;BMP280;52893;52.870;5.822;2023-05-19T09:03:36;102736.63;;;20.30
66113;BMP280;52893;52.870;5.822;2023-05-19T09:06:05;102736.44;;;20.23
66113;BMP280;52893;52.870;5.822;2023-05-19T09:08:34;102730.59;;;20.41
66113;BMP280;52893;52.870;5.822;2023-05-19T09:11:02;102725.41;;;20.67
66113;BMP280;52893;52.870;5.822;2023-05-19T09:13:29;102729.50;;;20.85
66113;BMP280;52893;52.870;5.822;2023-05-19T09:15:56;102728.03;;;21.03
66113;BMP280;52893;52.870;5.822;2023-05-19T09:18:24;102733.19;;;21.17
66113;BMP280;52893;52.870;5.822;2023-05-19T09:20:55;102713.63;;;21.13
66113;BMP280;52893;52.870;5.822;2023-05-19T09:23:26;102723.25;;;21.31
66113;BMP280;52893;52.870;5.822;2023-05-19T09:25:56;102722.59;;;21.22
66113;BMP280;52893;52.870;5.822;2023-05-19T09:28:24;102710.44;;;21.27
66113;BMP280;52893;52.870;5.822;2023-05-19T09:31:00;102704.88;;;21.42
66113;BMP280;52893;52.870;5.822;2023-05-19T09:33:27;102714.97;;;21.66
66113;BMP280;52893;52.870;5.822;2023-05-19T09:35:56;102722.56;;;21.85
66113;BMP280;52893;52.870;5.822;2023-05-19T09:38:23;102712.94;;;21.98
66113;BMP280;52893;52.870;5.822;2023-05-19T09:40:52;102715.25;;;22.12
66113;BMP280;52893;52.870;5.822;2023-05-19T09:43:21;102704.06;;;22.27
66113;BMP280;52893;52.870;5.822;2023-05-19T09:45:54;102719.13;;;22.45
66113;BMP280;52893;52.870;5.822;2023-05-19T09:48:21;102710.56;;;22.73
66113;BMP280;52893;52.870;5.822;2023-05-19T09:50:48;102692.47;;;22.63
66113;BMP280;52893;52.870;5.822;2023-05-19T09:53:16;102716.06;;;22.50
66113;BMP280;52893;52.870;5.822;2023-05-19T09:55:44;102710.69;;;22.61
66113;BMP280;52893;52.870;5.822;2023-05-19T09:58:15;102713.56;;;22.64
66113;BMP280;52893;52.870;5.822;2023-05-19T10:00:44;102701.91;;;22.59
66113;BMP280;52893;52.870;5.822;2023-05-19T10:03:12;102711.72;;;22.72
66113;BMP280;52893;52.870;5.822;2023-05-19T10:05:39;102712.69;;;22.60
66113;BMP280;52893;52.870;5.822;2023-05-19T10:08:07;102714.44;;;22.49
66113;BMP280;52893;52.870;5.822;2023-05-19T10:10:36;102715.25;;;22.50
66113;BMP280;52893;52.870;5.822;2023-05-19T10:13:06;102712.28;;;22.58
66113;BMP280;52893;52.870;5.822;2023-05-19T10:15:34;102709.59;;;22.85
66113;BMP280;52893;52.870;5.822;2023-05-19T10:18:05;102692.88;;;22.85
66113;BMP280;52893;52.870;5.822;2023-05-19T10:20:33;102704.84;;;23.08
66113;BMP280;52893;52.870;5.822;2023-05-19T10:23:01;102700.84;;;23.31
66113;BMP280;52893;52.870;5.822;2023-05-19T10:25:29;102698.81;;;23.55
66113;BMP280;52893;52.870;5.822;2023-05-19T10:28:00;102699.25;;;23.83
66113;BMP280;52893;52.870;5.822;2023-05-19T10:30:32;102686.25;;;24.24
66113;BMP280;52893;52.870;5.822;2023-05-19T10:33:00;102691.47;;;24.66
66113;BMP280;52893;52.870;5.822;2023-05-19T10:38:25;102672.78;;;24.70
66113;BMP280;52893;52.870;5.822;2023-05-19T10:41:01;102676.72;;;24.28
66113;BMP280;52893;52.870;5.822;2023-05-19T10:43:37;102683.00;;;23.88
66113;BMP280;52893;52.870;5.822;2023-05-19T10:46:06;102681.69;;;23.53
66113;BMP280;52893;52.870;5.822;2023-05-19T10:48:34;102685.63;;;23.25
66113;BMP280;52893;52.870;5.822;2023-05-19T10:51:04;102687.31;;;23.07
66113;BMP280;52893;52.870;5.822;2023-05-19T10:53:32;102681.06;;;23.14
66113;BMP280;52893;52.870;5.822;2023-05-19T10:56:01;102679.47;;;23.39
66113;BMP280;52893;52.870;5.822;2023-05-19T10:58:39;102678.38;;;23.70
66113;BMP280;52893;52.870;5.822;2023-05-19T11:01:15;102674.47;;;24.08
66113;BMP280;52893;52.870;5.822;2023-05-19T11:03:44;102663.06;;;24.20
66113;BMP280;52893;52.870;5.822;2023-05-19T11:06:17;102652.47;;;24.36
66113;BMP280;52893;52.870;5.822;2023-05-19T11:08:45;102658.78;;;24.66
66113;BMP280;52893;52.870;5.822;2023-05-19T11:11:14;102654.22;;;24.91
66113;BMP280;52893;52.870;5.822;2023-05-19T11:13:42;102645.59;;;25.10
66113;BMP280;52893;52.870;5.822;2023-05-19T11:16:13;102658.50;;;25.33
66113;BMP280;52893;52.870;5.822;2023-05-19T11:18:40;102647.03;;;25.48
66113;BMP280;52893;52.870;5.822;2023-05-19T11:21:09;102656.75;;;25.79
66113;BMP280;52893;52.870;5.822;2023-05-19T11:23:38;102659.28;;;26.05
66113;BMP280;52893;52.870;5.822;2023-05-19T11:26:08;102655.69;;;26.05
66113;BMP280;52893;52.870;5.822;2023-05-19T11:28:36;102644.44;;;25.94
66113;BMP280;52893;52.870;5.822;2023-05-19T11:31:04;102642.06;;;26.00
66113;BMP280;52893;52.870;5.822;2023-05-19T11:33:33;102640.53;;;26.27
66113;BMP280;52893;52.870;5.822;2023-05-19T11:36:01;102644.53;;;26.36
66113;BMP280;52893;52.870;5.822;2023-05-19T11:38:28;102638.91;;;26.26
66113;BMP280;52893;52.870;5.822;2023-05-19T11:40:57;102636.50;;;26.17
66113;BMP280;52893;52.870;5.822;2023-05-19T11:43:24;102634.78;;;25.81
66113;BMP280;52893;52.870;5.822;2023-05-19T11:45:52;102638.69;;;25.62
66113;BMP280;52893;52.870;5.822;2023-05-19T11:48:23;102641.09;;;25.60
66113;BMP280;52893;52.870;5.822;2023-05-19T11:50:50;102641.44;;;25.52
66113;BMP280;52893;52.870;5.822;2023-05-19T11:53:18;102636.22;;;25.47
66113;BMP280;52893;52.870;5.822;2023-05-19T11:55:46;102637.03;;;25.47
66113;BMP280;52893;52.870;5.822;2023-05-19T11:58:14;102627.44;;;25.52
66113;BMP280;52893;52.870;5.822;2023-05-19T12:00:43;102634.63;;;25.46
66113;BMP280;52893;52.870;5.822;2023-05-19T12:03:12;102633.50;;;25.57
66113;BMP280;52893;52.870;5.822;2023-05-19T12:05:42;102627.59;;;25.83
66113;BMP280;52893;52.870;5.822;2023-05-19T12:08:10;102630.91;;;26.17
66113;BMP280;52893;52.870;5.822;2023-05-19T12:10:38;102631.75;;;26.46
66113;BMP280;52893;52.870;5.822;2023-05-19T12:13:06;102630.94;;;26.74
66113;BMP280;52893;52.870;5.822;2023-05-19T12:15:37;102628.53;;;27.07
66113;BMP280;52893;52.870;5.822;2023-05-19T12:18:05;102640.50;;;27.18
66113;BMP280;52893;52.870;5.822;2023-05-19T12:20:33;102639.34;;;26.91
66113;BMP280;52893;52.870;5.822;2023-05-19T12:23:02;102629.72;;;26.92
66113;BMP280;52893;52.870;5.822;2023-05-19T12:25:30;102622.53;;;27.09
66113;BMP280;52893;52.870;5.822;2023-05-19T12:27:58;102605.69;;;27.09
66113;BMP280;52893;52.870;5.822;2023-05-19T12:30:28;102614.13;;;26.77
66113;BMP280;52893;52.870;5.822;2023-05-19T12:32:58;102621.38;;;26.71
66113;BMP280;52893;52.870;5.822;2023-05-19T12:35:26;102538.09;;;26.26
66113;BMP280;52893;52.870;5.822;2023-05-19T12:37:54;102623.34;;;26.88
66113;BMP280;52893;52.870;5.822;2023-05-19T12:40:22;102614.53;;;26.72
66113;BMP280;52893;52.870;5.822;2023-05-19T12:42:54;102398.06;;;25.31
66113;BMP280;52893;52.870;5.822;2023-05-19T12:45:23;102614.13;;;26.45
66113;BMP280;52893;52.870;5.822;2023-05-19T12:47:53;102608.94;;;26.33
66113;BMP280;52893;52.870;5.822;2023-05-19T12:50:28;102605.72;;;26.38
66113;BMP280;52893;52.870;5.822;2023-05-19T12:52:55;102583.34;;;26.52
66113;BMP280;52893;52.870;5.822;2023-05-19T12:55:24;102592.91;;;26.80
66113;BMP280;52893;52.870;5.822;2023-05-19T12:57:52;102498.06;;;25.97
66113;BMP280;52893;52.870;5.822;2023-05-19T13:00:22;102598.03;;;25.97
66113;BMP280;52893;52.870;5.822;2023-05-19T13:02:55;102545.38;;;25.16
66113;BMP280;52893;52.870;5.822;2023-05-19T13:05:25;102594.88;;;25.15
66113;BMP280;52893;52.870;5.822;2023-05-19T13:07:58;102585.31;;;24.62
66113;BMP280;52893;52.870;5.822;2023-05-19T13:10:28;102512.13;;;24.02
66113;BMP280;52893;52.870;5.822;2023-05-19T13:13:18;102572.47;;;24.14
66113;BMP280;52893;52.870;5.822;2023-05-19T13:15:48;102590.34;;;24.06
66113;BMP280;52893;52.870;5.822;2023-05-19T13:18:15;102593.84;;;23.99
66113;BMP280;52893;52.870;5.822;2023-05-19T13:20:46;102415.09;;;22.82
66113;BMP280;52893;52.870;5.822;2023-05-19T13:23:16;102588.59;;;23.94
66113;BMP280;52893;52.870;5.822;2023-05-19T13:25:45;102496.41;;;23.50
66113;BMP280;52893;52.870;5.822;2023-05-19T13:28:18;102345.00;;;22.80
66113;BMP280;52893;52.870;5.822;2023-05-19T13:30:46;102581.88;;;24.35
66113;BMP280;52893;52.870;5.822;2023-05-19T13:33:17;102576.50;;;24.60
66113;BMP280;52893;52.870;5.822;2023-05-19T13:35:47;102582.34;;;24.92
66113;BMP280;52893;52.870;5.822;2023-05-19T13:38:17;102437.97;;;24.45
66113;BMP280;52893;52.870;5.822;2023-05-19T13:40:44;102569.19;;;25.68
66113;BMP280;52893;52.870;5.822;2023-05-19T13:43:12;102550.84;;;25.88
66113;BMP280;52893;52.870;5.822;2023-05-19T13:45:41;102510.88;;;25.84
66113;BMP280;52893;52.870;5.822;2023-05-19T13:48:15;102375.22;;;25.21
66113;BMP280;52893;52.870;5.822;2023-05-19T13:50:43;102552.09;;;26.54
66113;BMP280;52893;52.870;5.822;2023-05-19T13:53:14;102387.69;;;25.70
66113;BMP280;52893;52.870;5.822;2023-05-19T13:55:46;102465.28;;;26.36
66113;BMP280;52893;52.870;5.822;2023-05-19T13:58:14;102556.44;;;27.01
66113;BMP280;52893;52.870;5.822;2023-05-19T14:00:44;102550.06;;;26.79
66113;BMP280;52893;52.870;5.822;2023-05-19T14:03:12;102390.50;;;25.73
66113;BMP280;52893;52.870;5.822;2023-05-19T14:05:41;102550.44;;;26.92
66113;BMP280;52893;52.870;5.822;2023-05-19T14:08:09;102468.47;;;26.38
66113;BMP280;52893;52.870;5.822;2023-05-19T14:10:39;102546.88;;;26.67
66113;BMP280;52893;52.870;5.822;2023-05-19T14:13:10;102544.47;;;26.72
66113;BMP280;52893;52.870;5.822;2023-05-19T14:15:38;102397.31;;;25.86
66113;BMP280;52893;52.870;5.822;2023-05-19T14:18:07;102492.50;;;26.50
66113;BMP280;52893;52.870;5.822;2023-05-19T14:20:36;102472.44;;;26.44
66113;BMP280;52893;52.870;5.822;2023-05-19T14:23:04;102359.72;;;25.70